首页
METAR-TAF:

METAR-TAF

机场 :

雅温得-恩西马兰国际机场

雅温得, 喀麦隆

纬度: 03-50N, 经度: 011-31E, 海拔: 751米

当前天气观测

该预报发布于1小时和59分钟前的22:00 UTC
温度 20°C
湿度 100%
气压 1020 hPa
能見度: 7000
多云层高于600英尺

METAR: FKYS 192200Z /////KT 7000 BKN006 20/20 Q1020 NOSIG

时间: 00:59 (23:59 UTC)

预报

该预报发布于59分钟前的23:00 UTC
预报有效从20日的 00点(UTC)到 20日的 24点(UTC)
风速5节,风向多变
能見度: 8000
多云层高于600英尺
短暂存在
从 20日的 04点(UTC)到 20日的 08点(UTC)
能見度: 3000
雨, 毛毛雨
成为
从 20日的 08点(UTC)到 20日的 10点(UTC)
多云层高于1000英尺

TAF: FKYS 192300Z 2000/2024 VRB05KT 8000 BKN006 TEMPO 2004/2008 3000 RADZ BECMG 2008/2010 BKN010

超过4000个机场的气象观测和天气预报(METAR&TAF报告)。

可查询的气象台以黄色和红色小点在地图上表示。

将鼠标移到小点上方,可查看气象台名称。

然后点击查看天气观测和预报。

如需切换地图:点击带黑十字的绿色按钮放大地图;点击带横线的绿色按钮缩小地图;或者点击绿色箭头查看邻近地区的地图。


METAR-TAF: